sensor_id;sensor_type;location;lat;lon;timestamp;P1;durP1;ratioP1;P2;durP2;ratioP2
47021;SDS011;32779;52.264;6.154;2022-07-05T00:02:29;1.80;;;1.30;;
47021;SDS011;32779;52.264;6.154;2022-07-05T00:07:20;1.50;;;1.40;;
47021;SDS011;32779;52.264;6.154;2022-07-05T00:09:48;3.55;;;1.52;;
47021;SDS011;32779;52.264;6.154;2022-07-05T00:12:19;3.53;;;1.75;;
47021;SDS011;32779;52.264;6.154;2022-07-05T00:14:46;2.35;;;1.50;;
47021;SDS011;32779;52.264;6.154;2022-07-05T00:17:13;3.95;;;1.70;;
47021;SDS011;32779;52.264;6.154;2022-07-05T00:19:39;1.27;;;1.13;;
47021;SDS011;32779;52.264;6.154;2022-07-05T00:24:31;3.65;;;1.63;;
47021;SDS011;32779;52.264;6.154;2022-07-05T00:26:56;2.70;;;1.40;;
47021;SDS011;32779;52.264;6.154;2022-07-05T00:31:47;2.22;;;1.20;;
47021;SDS011;32779;52.264;6.154;2022-07-05T00:36:39;2.95;;;1.33;;
47021;SDS011;32779;52.264;6.154;2022-07-05T00:41:30;2.38;;;1.27;;
47021;SDS011;32779;52.264;6.154;2022-07-05T00:46:23;2.60;;;1.20;;
47021;SDS011;32779;52.264;6.154;2022-07-05T00:48:49;6.93;;;1.50;;
47021;SDS011;32779;52.264;6.154;2022-07-05T00:51:15;2.13;;;1.23;;
47021;SDS011;32779;52.264;6.154;2022-07-05T00:53:41;2.33;;;1.25;;
47021;SDS011;32779;52.264;6.154;2022-07-05T00:56:08;2.05;;;1.33;;
47021;SDS011;32779;52.264;6.154;2022-07-05T00:58:37;1.77;;;1.17;;
47021;SDS011;32779;52.264;6.154;2022-07-05T01:01:06;6.43;;;1.30;;
47021;SDS011;32779;52.264;6.154;2022-07-05T01:03:34;2.60;;;0.98;;
47021;SDS011;32779;52.264;6.154;2022-07-05T01:06:03;3.30;;;1.30;;
47021;SDS011;32779;52.264;6.154;2022-07-05T01:08:32;1.23;;;1.13;;
47021;SDS011;32779;52.264;6.154;2022-07-05T01:10:59;1.90;;;1.00;;
47021;SDS011;32779;52.264;6.154;2022-07-05T01:13:25;1.92;;;1.20;;
47021;SDS011;32779;52.264;6.154;2022-07-05T01:15:51;1.88;;;1.23;;
47021;SDS011;32779;52.264;6.154;2022-07-05T01:18:18;2.97;;;1.17;;
47021;SDS011;32779;52.264;6.154;2022-07-05T01:20:45;1.63;;;1.10;;
47021;SDS011;32779;52.264;6.154;2022-07-05T01:23:13;1.50;;;1.40;;
47021;SDS011;32779;52.264;6.154;2022-07-05T01:28:05;3.17;;;1.33;;
47021;SDS011;32779;52.264;6.154;2022-07-05T01:30:31;3.55;;;1.35;;
47021;SDS011;32779;52.264;6.154;2022-07-05T01:33:00;1.67;;;1.17;;
47021;SDS011;32779;52.264;6.154;2022-07-05T01:35:25;3.00;;;1.48;;
47021;SDS011;32779;52.264;6.154;2022-07-05T01:40:17;2.55;;;1.58;;
47021;SDS011;32779;52.264;6.154;2022-07-05T01:42:44;2.78;;;1.50;;
47021;SDS011;32779;52.264;6.154;2022-07-05T01:47:36;2.80;;;1.23;;
47021;SDS011;32779;52.264;6.154;2022-07-05T01:50:04;2.05;;;1.50;;
47021;SDS011;32779;52.264;6.154;2022-07-05T01:52:31;2.00;;;1.48;;
47021;SDS011;32779;52.264;6.154;2022-07-05T01:55:01;2.35;;;1.60;;
47021;SDS011;32779;52.264;6.154;2022-07-05T01:57:28;4.03;;;1.60;;
47021;SDS011;32779;52.264;6.154;2022-07-05T01:59:54;6.85;;;2.08;;
47021;SDS011;32779;52.264;6.154;2022-07-05T02:02:20;2.95;;;1.50;;
47021;SDS011;32779;52.264;6.154;2022-07-05T02:07:11;2.83;;;1.60;;
47021;SDS011;32779;52.264;6.154;2022-07-05T02:09:36;1.63;;;1.50;;
47021;SDS011;32779;52.264;6.154;2022-07-05T02:12:03;2.30;;;1.80;;
47021;SDS011;32779;52.264;6.154;2022-07-05T02:14:30;3.53;;;1.77;;
47021;SDS011;32779;52.264;6.154;2022-07-05T02:16:56;2.83;;;1.85;;
47021;SDS011;32779;52.264;6.154;2022-07-05T02:19:21;3.17;;;1.85;;
47021;SDS011;32779;52.264;6.154;2022-07-05T02:21:47;6.47;;;1.92;;
47021;SDS011;32779;52.264;6.154;2022-07-05T02:24:13;2.90;;;2.08;;
47021;SDS011;32779;52.264;6.154;2022-07-05T02:29:04;3.03;;;1.90;;
47021;SDS011;32779;52.264;6.154;2022-07-05T02:31:30;3.70;;;1.95;;
47021;SDS011;32779;52.264;6.154;2022-07-05T02:36:21;2.40;;;1.85;;
47021;SDS011;32779;52.264;6.154;2022-07-05T02:38:47;2.30;;;1.90;;
47021;SDS011;32779;52.264;6.154;2022-07-05T02:41:13;3.08;;;2.10;;
47021;SDS011;32779;52.264;6.154;2022-07-05T02:43:39;3.17;;;2.33;;
47021;SDS011;32779;52.264;6.154;2022-07-05T02:46:05;2.55;;;2.00;;
47021;SDS011;32779;52.264;6.154;2022-07-05T02:48:32;3.45;;;2.03;;
47021;SDS011;32779;52.264;6.154;2022-07-05T02:50:58;3.40;;;2.33;;
47021;SDS011;32779;52.264;6.154;2022-07-05T02:53:24;2.50;;;2.17;;
47021;SDS011;32779;52.264;6.154;2022-07-05T02:55:50;7.25;;;2.58;;
47021;SDS011;32779;52.264;6.154;2022-07-05T03:00:45;2.72;;;2.33;;
47021;SDS011;32779;52.264;6.154;2022-07-05T03:03:12;7.13;;;2.58;;
47021;SDS011;32779;52.264;6.154;2022-07-05T03:08:04;5.82;;;2.85;;
47021;SDS011;32779;52.264;6.154;2022-07-05T03:12:55;2.95;;;2.42;;
47021;SDS011;32779;52.264;6.154;2022-07-05T03:15:20;6.75;;;2.58;;
47021;SDS011;32779;52.264;6.154;2022-07-05T03:20:12;3.47;;;2.17;;
47021;SDS011;32779;52.264;6.154;2022-07-05T03:22:37;3.25;;;2.65;;
47021;SDS011;32779;52.264;6.154;2022-07-05T03:27:29;2.40;;;2.20;;
47021;SDS011;32779;52.264;6.154;2022-07-05T03:29:55;3.50;;;2.42;;
47021;SDS011;32779;52.264;6.154;2022-07-05T03:34:46;2.80;;;2.22;;
47021;SDS011;32779;52.264;6.154;2022-07-05T03:39:37;2.80;;;2.40;;
47021;SDS011;32779;52.264;6.154;2022-07-05T03:44:28;4.03;;;2.35;;
47021;SDS011;32779;52.264;6.154;2022-07-05T03:46:56;4.93;;;2.80;;
47021;SDS011;32779;52.264;6.154;2022-07-05T03:49:22;4.65;;;2.33;;
47021;SDS011;32779;52.264;6.154;2022-07-05T03:51:48;4.53;;;2.60;;
47021;SDS011;32779;52.264;6.154;2022-07-05T03:54:13;4.15;;;2.53;;
47021;SDS011;32779;52.264;6.154;2022-07-05T03:59:04;3.17;;;2.22;;
47021;SDS011;32779;52.264;6.154;2022-07-05T04:03:55;4.15;;;2.58;;
47021;SDS011;32779;52.264;6.154;2022-07-05T04:06:21;2.85;;;2.53;;
47021;SDS011;32779;52.264;6.154;2022-07-05T04:08:47;5.00;;;2.58;;
47021;SDS011;32779;52.264;6.154;2022-07-05T04:13:38;3.50;;;2.38;;
47021;SDS011;32779;52.264;6.154;2022-07-05T04:16:05;5.20;;;2.70;;
47021;SDS011;32779;52.264;6.154;2022-07-05T04:18:30;4.05;;;2.65;;
47021;SDS011;32779;52.264;6.154;2022-07-05T04:20:56;3.35;;;2.20;;
47021;SDS011;32779;52.264;6.154;2022-07-05T04:25:47;3.35;;;2.33;;
47021;SDS011;32779;52.264;6.154;2022-07-05T04:30:38;5.15;;;2.30;;
47021;SDS011;32779;52.264;6.154;2022-07-05T04:33:04;4.88;;;2.55;;
47021;SDS011;32779;52.264;6.154;2022-07-05T04:37:55;4.10;;;2.55;;
47021;SDS011;32779;52.264;6.154;2022-07-05T04:40:20;3.80;;;2.70;;
47021;SDS011;32779;52.264;6.154;2022-07-05T04:42:46;4.32;;;2.65;;
47021;SDS011;32779;52.264;6.154;2022-07-05T04:47:37;3.03;;;2.40;;
47021;SDS011;32779;52.264;6.154;2022-07-05T04:52:28;5.88;;;2.53;;
47021;SDS011;32779;52.264;6.154;2022-07-05T04:57:19;4.18;;;2.83;;
47021;SDS011;32779;52.264;6.154;2022-07-05T05:02:11;4.00;;;2.65;;
47021;SDS011;32779;52.264;6.154;2022-07-05T05:07:02;6.82;;;3.08;;
47021;SDS011;32779;52.264;6.154;2022-07-05T05:11:53;3.90;;;2.55;;
47021;SDS011;32779;52.264;6.154;2022-07-05T05:16:44;2.88;;;2.60;;
47021;SDS011;32779;52.264;6.154;2022-07-05T05:21:36;6.57;;;3.38;;
47021;SDS011;32779;52.264;6.154;2022-07-05T05:26:27;6.53;;;2.95;;
47021;SDS011;32779;52.264;6.154;2022-07-05T05:31:18;5.18;;;2.90;;
47021;SDS011;32779;52.264;6.154;2022-07-05T05:36:10;6.40;;;3.20;;
47021;SDS011;32779;52.264;6.154;2022-07-05T05:41:01;5.90;;;2.90;;
47021;SDS011;32779;52.264;6.154;2022-07-05T05:45:52;7.43;;;3.17;;
47021;SDS011;32779;52.264;6.154;2022-07-05T05:50:45;5.03;;;3.13;;
47021;SDS011;32779;52.264;6.154;2022-07-05T05:53:11;8.38;;;3.50;;
47021;SDS011;32779;52.264;6.154;2022-07-05T06:00:42;5.15;;;3.58;;
47021;SDS011;32779;52.264;6.154;2022-07-05T06:03:09;5.88;;;3.75;;
47021;SDS011;32779;52.264;6.154;2022-07-05T06:08:00;7.00;;;3.90;;
47021;SDS011;32779;52.264;6.154;2022-07-05T06:12:53;5.70;;;3.67;;
47021;SDS011;32779;52.264;6.154;2022-07-05T06:15:22;10.73;;;4.20;;
47021;SDS011;32779;52.264;6.154;2022-07-05T06:20:14;9.07;;;4.07;;
47021;SDS011;32779;52.264;6.154;2022-07-05T06:22:42;4.72;;;3.13;;
47021;SDS011;32779;52.264;6.154;2022-07-05T06:27:40;5.70;;;3.10;;
47021;SDS011;32779;52.264;6.154;2022-07-05T06:30:07;5.45;;;3.55;;
47021;SDS011;32779;52.264;6.154;2022-07-05T06:32:33;5.95;;;3.28;;
47021;SDS011;32779;52.264;6.154;2022-07-05T06:37:26;7.63;;;3.40;;
47021;SDS011;32779;52.264;6.154;2022-07-05T06:42:17;5.30;;;3.42;;
47021;SDS011;32779;52.264;6.154;2022-07-05T06:47:08;9.02;;;3.70;;
47021;SDS011;32779;52.264;6.154;2022-07-05T06:49:34;8.23;;;3.70;;
47021;SDS011;32779;52.264;6.154;2022-07-05T06:54:26;5.53;;;3.67;;
47021;SDS011;32779;52.264;6.154;2022-07-05T06:56:51;5.43;;;3.72;;
47021;SDS011;32779;52.264;6.154;2022-07-05T06:59:20;5.32;;;3.35;;
47021;SDS011;32779;52.264;6.154;2022-07-05T07:01:46;6.38;;;3.45;;
47021;SDS011;32779;52.264;6.154;2022-07-05T07:06:37;6.05;;;2.67;;
47021;SDS011;32779;52.264;6.154;2022-07-05T07:09:03;7.15;;;2.83;;
47021;SDS011;32779;52.264;6.154;2022-07-05T07:11:44;5.55;;;2.42;;
47021;SDS011;32779;52.264;6.154;2022-07-05T07:14:10;2.70;;;2.35;;
47021;SDS011;32779;52.264;6.154;2022-07-05T07:16:36;6.82;;;2.60;;
47021;SDS011;32779;52.264;6.154;2022-07-05T07:19:01;4.10;;;2.22;;
47021;SDS011;32779;52.264;6.154;2022-07-05T07:21:27;4.90;;;2.33;;
47021;SDS011;32779;52.264;6.154;2022-07-05T07:23:53;3.47;;;2.40;;
47021;SDS011;32779;52.264;6.154;2022-07-05T07:26:18;3.90;;;2.03;;
47021;SDS011;32779;52.264;6.154;2022-07-05T07:28:44;4.93;;;2.10;;
47021;SDS011;32779;52.264;6.154;2022-07-05T07:31:09;7.97;;;2.50;;
47021;SDS011;32779;52.264;6.154;2022-07-05T07:33:35;3.97;;;2.05;;
47021;SDS011;32779;52.264;6.154;2022-07-05T07:36:01;2.45;;;1.45;;
47021;SDS011;32779;52.264;6.154;2022-07-05T07:38:27;2.53;;;1.63;;
47021;SDS011;32779;52.264;6.154;2022-07-05T07:40:52;4.25;;;2.72;;
47021;SDS011;32779;52.264;6.154;2022-07-05T07:43:18;4.07;;;2.30;;
47021;SDS011;32779;52.264;6.154;2022-07-05T07:45:44;3.78;;;2.22;;
47021;SDS011;32779;52.264;6.154;2022-07-05T07:48:09;6.28;;;2.83;;
47021;SDS011;32779;52.264;6.154;2022-07-05T07:50:35;3.72;;;2.75;;
47021;SDS011;32779;52.264;6.154;2022-07-05T07:53:00;4.05;;;2.00;;
47021;SDS011;32779;52.264;6.154;2022-07-05T07:55:26;3.00;;;1.60;;
47021;SDS011;32779;52.264;6.154;2022-07-05T07:57:51;5.47;;;1.80;;
47021;SDS011;32779;52.264;6.154;2022-07-05T08:00:17;1.70;;;1.60;;
47021;SDS011;32779;52.264;6.154;2022-07-05T08:02:43;4.60;;;1.67;;
47021;SDS011;32779;52.264;6.154;2022-07-05T08:05:09;2.50;;;1.40;;
47021;SDS011;32779;52.264;6.154;2022-07-05T08:07:35;4.18;;;1.60;;
47021;SDS011;32779;52.264;6.154;2022-07-05T08:10:02;3.53;;;1.10;;
47021;SDS011;32779;52.264;6.154;2022-07-05T08:12:32;3.03;;;0.80;;
47021;SDS011;32779;52.264;6.154;2022-07-05T08:14:57;2.10;;;0.80;;
47021;SDS011;32779;52.264;6.154;2022-07-05T08:17:23;1.45;;;0.80;;
47021;SDS011;32779;52.264;6.154;2022-07-05T08:19:49;1.63;;;0.60;;
47021;SDS011;32779;52.264;6.154;2022-07-05T08:22:33;1.15;;;0.52;;
47021;SDS011;32779;52.264;6.154;2022-07-05T08:24:58;1.20;;;0.70;;
47021;SDS011;32779;52.264;6.154;2022-07-05T08:27:24;1.40;;;0.60;;
47021;SDS011;32779;52.264;6.154;2022-07-05T08:29:50;1.08;;;0.50;;
47021;SDS011;32779;52.264;6.154;2022-07-05T08:32:16;1.08;;;0.40;;
47021;SDS011;32779;52.264;6.154;2022-07-05T08:34:42;1.55;;;0.70;;
47021;SDS011;32779;52.264;6.154;2022-07-05T08:37:07;2.33;;;0.85;;
47021;SDS011;32779;52.264;6.154;2022-07-05T08:39:33;1.48;;;0.60;;
47021;SDS011;32779;52.264;6.154;2022-07-05T08:41:59;1.30;;;0.57;;
47021;SDS011;32779;52.264;6.154;2022-07-05T08:44:26;1.15;;;0.70;;
47021;SDS011;32779;52.264;6.154;2022-07-05T08:46:54;3.63;;;0.60;;
47021;SDS011;32779;52.264;6.154;2022-07-05T08:49:22;1.48;;;0.90;;
47021;SDS011;32779;52.264;6.154;2022-07-05T08:51:49;8.93;;;0.75;;
47021;SDS011;32779;52.264;6.154;2022-07-05T08:54:15;1.30;;;0.73;;
47021;SDS011;32779;52.264;6.154;2022-07-05T08:56:42;1.08;;;0.70;;
47021;SDS011;32779;52.264;6.154;2022-07-05T08:59:08;2.67;;;0.65;;
47021;SDS011;32779;52.264;6.154;2022-07-05T09:01:34;3.45;;;0.93;;
47021;SDS011;32779;52.264;6.154;2022-07-05T09:04:03;4.22;;;0.80;;
47021;SDS011;32779;52.264;6.154;2022-07-05T09:06:31;1.38;;;0.80;;
47021;SDS011;32779;52.264;6.154;2022-07-05T09:08:59;2.35;;;0.88;;
47021;SDS011;32779;52.264;6.154;2022-07-05T09:11:29;2.47;;;0.82;;
47021;SDS011;32779;52.264;6.154;2022-07-05T09:14:06;1.25;;;0.57;;
47021;SDS011;32779;52.264;6.154;2022-07-05T09:16:42;0.82;;;0.80;;
47021;SDS011;32779;52.264;6.154;2022-07-05T09:19:08;0.60;;;0.60;;
47021;SDS011;32779;52.264;6.154;2022-07-05T09:21:34;2.92;;;0.85;;
47021;SDS011;32779;52.264;6.154;2022-07-05T09:24:04;2.40;;;0.70;;
47021;SDS011;32779;52.264;6.154;2022-07-05T09:26:37;1.25;;;0.80;;
47021;SDS011;32779;52.264;6.154;2022-07-05T09:29:07;1.27;;;0.70;;
47021;SDS011;32779;52.264;6.154;2022-07-05T09:31:35;2.72;;;0.93;;
47021;SDS011;32779;52.264;6.154;2022-07-05T09:34:06;3.35;;;0.85;;
47021;SDS011;32779;52.264;6.154;2022-07-05T09:39:39;1.52;;;0.73;;
47021;SDS011;32779;52.264;6.154;2022-07-05T09:42:08;2.85;;;0.93;;
47021;SDS011;32779;52.264;6.154;2022-07-05T09:47:18;1.20;;;1.00;;
47021;SDS011;32779;52.264;6.154;2022-07-05T09:49:46;4.88;;;1.05;;
47021;SDS011;32779;52.264;6.154;2022-07-05T09:55:00;1.73;;;1.05;;
47021;SDS011;32779;52.264;6.154;2022-07-05T09:57:25;3.45;;;0.95;;
47021;SDS011;32779;52.264;6.154;2022-07-05T09:59:57;2.63;;;1.10;;
47021;SDS011;32779;52.264;6.154;2022-07-05T10:05:20;1.38;;;1.00;;
47021;SDS011;32779;52.264;6.154;2022-07-05T10:07:54;1.83;;;1.45;;
47021;SDS011;32779;52.264;6.154;2022-07-05T10:10:21;1.23;;;1.13;;
47021;SDS011;32779;52.264;6.154;2022-07-05T10:12:49;1.20;;;1.10;;
47021;SDS011;32779;52.264;6.154;2022-07-05T10:15:17;4.70;;;1.20;;
47021;SDS011;32779;52.264;6.154;2022-07-05T10:17:52;1.00;;;1.00;;
47021;SDS011;32779;52.264;6.154;2022-07-05T10:22:57;6.45;;;1.20;;
47021;SDS011;32779;52.264;6.154;2022-07-05T10:25:23;2.50;;;0.93;;
47021;SDS011;32779;52.264;6.154;2022-07-05T10:27:51;3.55;;;1.00;;
47021;SDS011;32779;52.264;6.154;2022-07-05T10:30:19;2.92;;;0.93;;
47021;SDS011;32779;52.264;6.154;2022-07-05T10:32:46;1.98;;;1.13;;
47021;SDS011;32779;52.264;6.154;2022-07-05T10:35:12;1.58;;;0.85;;
47021;SDS011;32779;52.264;6.154;2022-07-05T10:37:38;1.38;;;0.88;;
47021;SDS011;32779;52.264;6.154;2022-07-05T10:40:04;2.38;;;0.90;;
47021;SDS011;32779;52.264;6.154;2022-07-05T10:42:32;4.68;;;1.00;;
47021;SDS011;32779;52.264;6.154;2022-07-05T10:45:20;3.35;;;0.80;;
47021;SDS011;32779;52.264;6.154;2022-07-05T11:00:42;1.05;;;0.95;;
47021;SDS011;32779;52.264;6.154;2022-07-05T11:06:00;0.60;;;0.60;;
47021;SDS011;32779;52.264;6.154;2022-07-05T11:08:30;3.00;;;0.98;;
47021;SDS011;32779;52.264;6.154;2022-07-05T11:11:16;0.50;;;0.50;;
47021;SDS011;32779;52.264;6.154;2022-07-05T11:13:55;2.50;;;0.73;;
47021;SDS011;32779;52.264;6.154;2022-07-05T11:16:24;3.03;;;0.50;;
47021;SDS011;32779;52.264;6.154;2022-07-05T11:18:50;1.15;;;0.60;;
47021;SDS011;32779;52.264;6.154;2022-07-05T11:21:21;2.53;;;0.68;;
47021;SDS011;32779;52.264;6.154;2022-07-05T11:23:47;1.90;;;1.23;;
47021;SDS011;32779;52.264;6.154;2022-07-05T11:26:15;2.00;;;0.82;;
47021;SDS011;32779;52.264;6.154;2022-07-05T11:28:42;3.80;;;0.65;;
47021;SDS011;32779;52.264;6.154;2022-07-05T11:31:09;2.50;;;0.60;;
47021;SDS011;32779;52.264;6.154;2022-07-05T11:33:36;2.75;;;0.52;;
47021;SDS011;32779;52.264;6.154;2022-07-05T11:36:24;4.25;;;0.68;;
47021;SDS011;32779;52.264;6.154;2022-07-05T11:39:06;3.38;;;0.47;;
47021;SDS011;32779;52.264;6.154;2022-07-05T11:41:33;0.60;;;0.47;;
47021;SDS011;32779;52.264;6.154;2022-07-05T11:44:22;1.42;;;0.77;;
47021;SDS011;32779;52.264;6.154;2022-07-05T11:46:49;1.85;;;0.50;;
47021;SDS011;32779;52.264;6.154;2022-07-05T11:49:19;1.45;;;0.60;;
47021;SDS011;32779;52.264;6.154;2022-07-05T11:51:53;4.15;;;0.70;;
47021;SDS011;32779;52.264;6.154;2022-07-05T11:54:24;1.35;;;0.45;;
47021;SDS011;32779;52.264;6.154;2022-07-05T11:56:50;1.98;;;1.27;;
47021;SDS011;32779;52.264;6.154;2022-07-05T11:59:19;1.15;;;0.43;;
47021;SDS011;32779;52.264;6.154;2022-07-05T12:01:46;0.43;;;0.30;;
47021;SDS011;32779;52.264;6.154;2022-07-05T12:04:12;1.27;;;0.82;;
47021;SDS011;32779;52.264;6.154;2022-07-05T12:06:45;2.45;;;0.57;;
47021;SDS011;32779;52.264;6.154;2022-07-05T12:09:13;2.28;;;0.50;;
47021;SDS011;32779;52.264;6.154;2022-07-05T12:11:39;1.55;;;0.60;;
47021;SDS011;32779;52.264;6.154;2022-07-05T12:14:23;4.50;;;0.70;;
47021;SDS011;32779;52.264;6.154;2022-07-05T12:19:37;1.83;;;0.65;;
47021;SDS011;32779;52.264;6.154;2022-07-05T12:22:03;0.85;;;0.40;;
47021;SDS011;32779;52.264;6.154;2022-07-05T12:24:28;2.92;;;0.57;;
47021;SDS011;32779;52.264;6.154;2022-07-05T12:26:54;1.67;;;0.60;;
47021;SDS011;32779;52.264;6.154;2022-07-05T12:29:20;3.15;;;0.70;;
47021;SDS011;32779;52.264;6.154;2022-07-05T12:31:58;3.78;;;0.60;;
47021;SDS011;32779;52.264;6.154;2022-07-05T12:34:25;4.93;;;0.52;;
47021;SDS011;32779;52.264;6.154;2022-07-05T12:36:51;1.83;;;0.68;;
47021;SDS011;32779;52.264;6.154;2022-07-05T12:39:17;2.22;;;0.63;;
47021;SDS011;32779;52.264;6.154;2022-07-05T12:41:42;2.95;;;0.70;;
47021;SDS011;32779;52.264;6.154;2022-07-05T12:44:08;1.98;;;0.40;;
47021;SDS011;32779;52.264;6.154;2022-07-05T12:46:38;0.32;;;0.30;;
47021;SDS011;32779;52.264;6.154;2022-07-05T12:49:05;2.53;;;0.80;;
47021;SDS011;32779;52.264;6.154;2022-07-05T12:51:32;2.38;;;0.80;;
47021;SDS011;32779;52.264;6.154;2022-07-05T12:54:00;0.85;;;0.52;;
47021;SDS011;32779;52.264;6.154;2022-07-05T12:56:51;4.78;;;0.85;;
47021;SDS011;32779;52.264;6.154;2022-07-05T12:59:37;0.85;;;0.52;;
47021;SDS011;32779;52.264;6.154;2022-07-05T13:02:03;3.33;;;0.68;;
47021;SDS011;32779;52.264;6.154;2022-07-05T13:04:29;8.18;;;1.00;;
47021;SDS011;32779;52.264;6.154;2022-07-05T13:07:01;2.15;;;0.52;;
47021;SDS011;32779;52.264;6.154;2022-07-05T13:12:10;5.80;;;0.82;;
47021;SDS011;32779;52.264;6.154;2022-07-05T13:14:44;2.70;;;0.75;;
47021;SDS011;32779;52.264;6.154;2022-07-05T13:17:11;1.27;;;0.75;;
47021;SDS011;32779;52.264;6.154;2022-07-05T13:19:41;2.03;;;0.60;;
47021;SDS011;32779;52.264;6.154;2022-07-05T13:22:08;3.55;;;0.60;;
47021;SDS011;32779;52.264;6.154;2022-07-05T13:24:34;3.25;;;0.50;;
47021;SDS011;32779;52.264;6.154;2022-07-05T13:27:00;1.80;;;0.45;;
47021;SDS011;32779;52.264;6.154;2022-07-05T13:29:26;0.77;;;0.40;;
47021;SDS011;32779;52.264;6.154;2022-07-05T13:31:52;1.90;;;0.50;;
47021;SDS011;32779;52.264;6.154;2022-07-05T13:34:18;2.58;;;0.40;;
47021;SDS011;32779;52.264;6.154;2022-07-05T13:36:44;5.28;;;0.40;;
47021;SDS011;32779;52.264;6.154;2022-07-05T13:39:10;2.92;;;0.60;;
47021;SDS011;32779;52.264;6.154;2022-07-05T13:41:36;1.40;;;0.63;;
47021;SDS011;32779;52.264;6.154;2022-07-05T13:44:02;1.40;;;0.63;;
47021;SDS011;32779;52.264;6.154;2022-07-05T13:46:27;3.35;;;0.55;;
47021;SDS011;32779;52.264;6.154;2022-07-05T13:48:53;1.52;;;0.50;;
47021;SDS011;32779;52.264;6.154;2022-07-05T13:51:19;2.83;;;0.60;;
47021;SDS011;32779;52.264;6.154;2022-07-05T13:53:44;0.82;;;0.30;;
47021;SDS011;32779;52.264;6.154;2022-07-05T13:56:10;4.72;;;0.60;;
47021;SDS011;32779;52.264;6.154;2022-07-05T13:58:35;0.45;;;0.32;;
47021;SDS011;32779;52.264;6.154;2022-07-05T14:01:01;2.17;;;0.30;;
47021;SDS011;32779;52.264;6.154;2022-07-05T14:03:28;2.92;;;0.30;;
47021;SDS011;32779;52.264;6.154;2022-07-05T14:05:54;2.95;;;0.52;;
47021;SDS011;32779;52.264;6.154;2022-07-05T14:08:20;1.75;;;0.40;;
47021;SDS011;32779;52.264;6.154;2022-07-05T14:10:49;2.10;;;0.43;;
47021;SDS011;32779;52.264;6.154;2022-07-05T14:13:17;3.13;;;0.70;;
47021;SDS011;32779;52.264;6.154;2022-07-05T14:15:43;1.58;;;0.40;;
47021;SDS011;32779;52.264;6.154;2022-07-05T14:18:10;1.35;;;0.40;;
47021;SDS011;32779;52.264;6.154;2022-07-05T14:20:36;2.80;;;0.43;;
47021;SDS011;32779;52.264;6.154;2022-07-05T14:23:02;2.53;;;0.60;;
47021;SDS011;32779;52.264;6.154;2022-07-05T14:25:27;0.90;;;0.30;;
47021;SDS011;32779;52.264;6.154;2022-07-05T14:27:53;2.08;;;0.30;;
47021;SDS011;32779;52.264;6.154;2022-07-05T14:30:18;0.85;;;0.40;;
47021;SDS011;32779;52.264;6.154;2022-07-05T14:32:44;2.70;;;0.45;;
47021;SDS011;32779;52.264;6.154;2022-07-05T14:35:10;0.40;;;0.35;;
47021;SDS011;32779;52.264;6.154;2022-07-05T14:37:35;2.92;;;0.30;;
47021;SDS011;32779;52.264;6.154;2022-07-05T14:40:01;0.50;;;0.30;;
47021;SDS011;32779;52.264;6.154;2022-07-05T14:42:29;0.93;;;0.50;;
47021;SDS011;32779;52.264;6.154;2022-07-05T14:44:56;2.42;;;0.40;;
47021;SDS011;32779;52.264;6.154;2022-07-05T14:47:21;0.90;;;0.50;;
47021;SDS011;32779;52.264;6.154;2022-07-05T14:49:47;0.65;;;0.32;;
47021;SDS011;32779;52.264;6.154;2022-07-05T14:52:12;1.10;;;0.22;;
47021;SDS011;32779;52.264;6.154;2022-07-05T14:54:38;0.63;;;0.30;;
47021;SDS011;32779;52.264;6.154;2022-07-05T14:57:04;2.72;;;0.60;;
47021;SDS011;32779;52.264;6.154;2022-07-05T14:59:29;1.05;;;0.40;;
47021;SDS011;32779;52.264;6.154;2022-07-05T15:01:55;2.20;;;0.32;;
47021;SDS011;32779;52.264;6.154;2022-07-05T15:04:21;3.35;;;0.63;;
47021;SDS011;32779;52.264;6.154;2022-07-05T15:06:46;1.98;;;0.30;;
47021;SDS011;32779;52.264;6.154;2022-07-05T15:09:12;1.52;;;0.50;;
47021;SDS011;32779;52.264;6.154;2022-07-05T15:11:38;0.30;;;0.30;;
47021;SDS011;32779;52.264;6.154;2022-07-05T15:14:03;1.40;;;0.30;;
47021;SDS011;32779;52.264;6.154;2022-07-05T15:16:29;3.50;;;0.50;;
47021;SDS011;32779;52.264;6.154;2022-07-05T15:18:55;1.00;;;0.30;;
47021;SDS011;32779;52.264;6.154;2022-07-05T15:21:21;0.75;;;0.30;;
47021;SDS011;32779;52.264;6.154;2022-07-05T15:23:46;1.67;;;0.40;;
47021;SDS011;32779;52.264;6.154;2022-07-05T15:26:12;4.07;;;0.50;;
47021;SDS011;32779;52.264;6.154;2022-07-05T15:28:37;1.67;;;0.38;;
47021;SDS011;32779;52.264;6.154;2022-07-05T15:31:06;0.95;;;0.35;;
47021;SDS011;32779;52.264;6.154;2022-07-05T15:33:31;1.95;;;0.43;;
47021;SDS011;32779;52.264;6.154;2022-07-05T15:35:57;2.45;;;0.45;;
47021;SDS011;32779;52.264;6.154;2022-07-05T15:38:23;1.02;;;0.35;;
47021;SDS011;32779;52.264;6.154;2022-07-05T15:40:49;1.10;;;0.50;;
47021;SDS011;32779;52.264;6.154;2022-07-05T15:43:15;2.05;;;0.60;;
47021;SDS011;32779;52.264;6.154;2022-07-05T15:45:41;1.58;;;0.30;;
47021;SDS011;32779;52.264;6.154;2022-07-05T15:48:06;2.05;;;0.40;;
47021;SDS011;32779;52.264;6.154;2022-07-05T15:50:32;0.82;;;0.40;;
47021;SDS011;32779;52.264;6.154;2022-07-05T15:52:57;1.08;;;0.50;;
47021;SDS011;32779;52.264;6.154;2022-07-05T15:55:23;0.70;;;0.35;;
47021;SDS011;32779;52.264;6.154;2022-07-05T15:57:48;2.88;;;0.50;;
47021;SDS011;32779;52.264;6.154;2022-07-05T16:00:14;0.90;;;0.40;;
47021;SDS011;32779;52.264;6.154;2022-07-05T16:02:40;1.75;;;0.60;;
47021;SDS011;32779;52.264;6.154;2022-07-05T16:05:06;2.08;;;0.50;;
47021;SDS011;32779;52.264;6.154;2022-07-05T16:07:32;0.47;;;0.47;;
47021;SDS011;32779;52.264;6.154;2022-07-05T16:09:57;1.70;;;0.40;;
47021;SDS011;32779;52.264;6.154;2022-07-05T16:12:23;0.73;;;0.40;;
47021;SDS011;32779;52.264;6.154;2022-07-05T16:14:48;0.93;;;0.50;;
47021;SDS011;32779;52.264;6.154;2022-07-05T16:17:14;2.88;;;0.50;;
47021;SDS011;32779;52.264;6.154;2022-07-05T16:19:39;1.95;;;0.40;;
47021;SDS011;32779;52.264;6.154;2022-07-05T16:22:05;2.05;;;0.60;;
47021;SDS011;32779;52.264;6.154;2022-07-05T16:24:31;2.55;;;0.38;;
47021;SDS011;32779;52.264;6.154;2022-07-05T16:26:56;0.80;;;0.40;;
47021;SDS011;32779;52.264;6.154;2022-07-05T16:29:22;0.90;;;0.60;;
47021;SDS011;32779;52.264;6.154;2022-07-05T16:31:47;1.67;;;0.50;;
47021;SDS011;32779;52.264;6.154;2022-07-05T16:34:16;3.60;;;0.70;;
47021;SDS011;32779;52.264;6.154;2022-07-05T16:36:43;2.60;;;0.43;;
47021;SDS011;32779;52.264;6.154;2022-07-05T16:39:09;0.95;;;0.40;;
47021;SDS011;32779;52.264;6.154;2022-07-05T16:41:35;1.02;;;0.60;;
47021;SDS011;32779;52.264;6.154;2022-07-05T16:44:01;4.95;;;0.65;;
47021;SDS011;32779;52.264;6.154;2022-07-05T16:46:26;4.30;;;0.82;;
47021;SDS011;32779;52.264;6.154;2022-07-05T16:48:52;3.08;;;0.70;;
47021;SDS011;32779;52.264;6.154;2022-07-05T16:51:18;2.63;;;0.68;;
47021;SDS011;32779;52.264;6.154;2022-07-05T16:53:45;7.55;;;0.90;;
47021;SDS011;32779;52.264;6.154;2022-07-05T16:56:13;1.40;;;0.50;;
47021;SDS011;32779;52.264;6.154;2022-07-05T16:58:43;1.45;;;0.50;;
47021;SDS011;32779;52.264;6.154;2022-07-05T17:01:11;4.43;;;0.85;;
47021;SDS011;32779;52.264;6.154;2022-07-05T17:03:39;1.95;;;0.73;;
47021;SDS011;32779;52.264;6.154;2022-07-05T17:06:07;3.45;;;0.80;;
47021;SDS011;32779;52.264;6.154;2022-07-05T17:08:34;4.75;;;0.88;;
47021;SDS011;32779;52.264;6.154;2022-07-05T17:11:00;1.92;;;0.60;;
47021;SDS011;32779;52.264;6.154;2022-07-05T17:13:27;4.40;;;0.80;;
47021;SDS011;32779;52.264;6.154;2022-07-05T17:15:52;4.05;;;0.82;;
47021;SDS011;32779;52.264;6.154;2022-07-05T17:18:18;1.88;;;0.60;;
47021;SDS011;32779;52.264;6.154;2022-07-05T17:20:44;3.70;;;0.65;;
47021;SDS011;32779;52.264;6.154;2022-07-05T17:23:09;2.30;;;0.38;;
47021;SDS011;32779;52.264;6.154;2022-07-05T17:25:35;2.83;;;0.55;;
47021;SDS011;32779;52.264;6.154;2022-07-05T17:28:01;3.55;;;0.75;;